Time;durP1;ratioP1;P1;durP2;ratioP2;P2;SDS_P1;SDS_P2;PMS_P1;PMS_P2;Temp;Humidity;BMP_temperature;BMP_pressure;BME280_temperature;BME280_humidity;BME280_pressure;Samples;Min_cycle;Max_cycle;Signal;HPM_P1;HPM_P2
2022/06/11 00:02:22;;;;;;;;;;;15.90;99.90;;;;;;5075679;28;20044;-66
2022/06/11 00:04:47;;;;;;;16.33;4.03;;;15.60;99.90;;;;;;5093019;28;19934;-66
2022/06/11 00:07:18;;;;;;;;;;;15.50;99.90;;;;;;5093513;28;20044;-66
2022/06/11 00:09:44;;;;;;;14.02;3.30;;;15.30;99.90;;;;;;5092840;28;19924;-66
2022/06/11 00:12:11;;;;;;;11.18;4.03;;;15.60;99.90;;;;;;5092907;28;20040;-66
2022/06/11 00:14:38;;;;;;;15.65;3.45;;;15.30;99.90;;;;;;5074914;28;20044;-66
2022/06/11 00:17:07;;;;;;;9.68;3.40;;;15.50;99.90;;;;;;5092340;28;20036;-67
2022/06/11 00:19:33;;;;;;;13.50;3.65;;;15.70;99.90;;;;;;5092393;28;20047;-66
2022/06/11 00:21:59;;;;;;;12.07;3.20;;;15.40;99.90;;;;;;5092808;28;20052;-68
2022/06/11 00:24:27;;;;;;;15.75;4.38;;;15.30;99.90;;;;;;5092803;28;20438;-67
2022/06/11 00:26:56;;;;;;;12.90;3.75;;;15.30;99.90;;;;;;5092189;28;20097;-66
2022/06/11 00:29:24;;;;;;;14.10;3.60;;;15.30;99.90;;;;;;5092660;28;20468;-65
2022/06/11 00:31:50;;;;;;;18.10;3.92;;;15.10;99.90;;;;;;5092128;28;20113;-66
2022/06/11 00:34:16;;;;;;;;;;;15.20;99.90;;;;;;5092197;28;20052;-66
2022/06/11 00:36:43;;;;;;;12.27;3.15;;;15.20;99.90;;;;;;5092213;28;19999;-66
2022/06/11 00:39:12;;;;;;;11.90;4.38;;;15.10;99.90;;;;;;5092100;28;20052;-66
2022/06/11 00:41:41;;;;;;;11.77;3.25;;;15.10;99.90;;;;;;5074186;28;20051;-66
2022/06/11 00:44:07;;;;;;;17.52;4.00;;;15.20;99.90;;;;;;5092326;28;20047;-66
2022/06/11 00:46:43;;;;;;;12.70;4.00;;;14.90;99.90;;;;;;5092168;28;20040;-66
2022/06/11 00:49:22;;;;;;;12.10;3.83;;;15.20;99.90;;;;;;5073850;28;20040;-66
2022/06/11 00:52:03;;;;;;;16.55;3.70;;;14.90;99.90;;;;;;5092064;28;20080;-65
2022/06/11 00:54:32;;;;;;;21.48;5.05;;;14.80;99.90;;;;;;5091689;28;20044;-65
2022/06/11 00:56:59;;;;;;;14.38;4.45;;;14.70;99.90;;;;;;5092202;28;20044;-66
2022/06/11 00:59:38;;;;;;;17.13;4.70;;;14.50;99.90;;;;;;5091824;28;20145;-67
2022/06/11 01:02:05;;;;;;;14.38;3.53;;;15.40;99.90;;;;;;5092198;28;20043;-66
2022/06/11 01:04:43;;;;;;;12.82;3.75;;;15.70;99.90;;;;;;5091821;28;20139;-66
2022/06/11 01:07:21;;;;;;;13.90;3.60;;;14.50;99.90;;;;;;5091560;28;20083;-66
2022/06/11 01:10:14;;;;;;;12.45;4.32;;;14.70;99.90;;;;;;5091721;28;20048;-66
2022/06/11 01:12:54;;;;;;;15.07;4.30;;;14.40;99.90;;;;;;5091716;28;20069;-66
2022/06/11 01:15:49;;;;;;;13.57;4.63;;;14.20;99.90;;;;;;5091589;28;20050;-67
2022/06/11 01:18:49;;;;;;;12.80;4.00;;;16.90;99.90;;;;;;5060006;28;20109;-66
2022/06/11 01:21:20;;;;;;;18.02;4.10;;;14.10;99.90;;;;;;5091875;28;20104;-65
2022/06/11 01:23:54;;;;;;;12.75;4.05;;;14.20;99.90;;;;;;5091980;28;20131;-65
2022/06/11 01:26:42;;;;;;;14.18;4.05;;;13.90;99.90;;;;;;5091671;28;20408;-65
2022/06/11 01:29:10;;;;;;;13.13;3.63;;;14.00;99.90;;;;;;5093697;28;20789;-65
2022/06/11 01:32:00;;;;;;;11.23;3.65;;;14.30;99.90;;;;;;5095804;28;20063;-66
2022/06/11 01:34:49;;;;;;;15.88;4.80;;;14.10;99.90;;;;;;5095585;28;20059;-66
2022/06/11 01:37:30;;;;;;;14.80;3.70;;;13.70;99.90;;;;;;5095630;28;20044;-65
2022/06/11 01:40:05;;;;;;;17.52;4.25;;;14.20;99.90;;;;;;5095955;28;20407;-66
2022/06/11 01:42:51;;;;;;;15.63;4.65;;;13.90;99.90;;;;;;5095488;28;20052;-66
2022/06/11 01:45:38;;;;;;;15.52;4.35;;;13.80;99.90;;;;;;5095752;28;20040;-66
2022/06/11 01:48:07;;;;;;;20.25;4.40;;;13.40;99.90;;;;;;5095469;28;20048;-67
2022/06/11 01:50:37;;;;;;;18.17;4.75;;;13.90;99.90;;;;;;5095236;28;20044;-66
2022/06/11 01:53:29;;;;;;;12.00;3.75;;;14.20;99.90;;;;;;5095544;28;20078;-65
2022/06/11 01:56:13;;;;;;;16.45;4.43;;;13.80;99.90;;;;;;5077488;28;20056;-68
2022/06/11 01:58:59;;;;;;;12.80;5.03;;;13.70;99.90;;;;;;5095541;28;20040;-65
2022/06/11 02:01:53;;;;;;;12.30;4.70;;;13.60;99.90;;;;;;5095513;28;20460;-67
2022/06/11 02:05:01;;;;;;;15.48;4.30;;;13.70;99.90;;;;;;5095110;28;20484;-65
2022/06/11 02:07:52;;;;;;;16.75;4.22;;;13.30;99.90;;;;;;5095525;28;20050;-66
2022/06/11 02:10:28;;;;;;;15.63;3.97;;;13.30;99.90;;;;;;5056719;28;20127;-66
2022/06/11 02:13:03;;;;;;;16.07;5.10;;;13.70;99.90;;;;;;5077410;28;20125;-65
2022/06/11 02:15:38;;;;;;;16.85;5.18;;;13.70;99.90;;;;;;5095307;28;20867;-65
2022/06/11 02:18:09;;;;;;;19.98;4.75;;;13.70;99.90;;;;;;5095191;28;20044;-66
2022/06/11 02:20:39;;;;;;;17.65;3.72;;;13.40;99.90;;;;;;5095121;28;20133;-65
2022/06/11 02:23:21;;;;;;;15.98;3.85;;;13.90;99.90;;;;;;5095121;28;20097;-65
2022/06/11 02:25:51;;;;;;;18.20;3.90;;;13.50;99.90;;;;;;5095099;28;20048;-67
2022/06/11 02:28:22;;;;;;;15.05;4.15;;;13.30;99.90;;;;;;5094999;28;20047;-65
2022/06/11 02:30:50;;;;;;;16.77;4.40;;;13.60;99.90;;;;;;5094726;28;20173;-65
2022/06/11 02:33:19;;;;;;;13.38;3.72;;;13.40;99.90;;;;;;5094868;28;20059;-65
2022/06/11 02:35:50;;;;;;;15.65;3.92;;;13.50;99.90;;;;;;5094842;28;20135;-66
2022/06/11 02:38:20;;;;;;;12.77;3.58;;;13.10;99.90;;;;;;5094751;28;20063;-66
2022/06/11 02:40:50;;;;;;;19.10;4.60;;;13.80;99.90;;;;;;5094516;28;20080;-65
2022/06/11 02:43:16;;;;;;;17.90;4.10;;;13.20;99.90;;;;;;5094750;28;20048;-67
2022/06/11 02:45:42;;;;;;;13.88;3.50;;;13.40;99.90;;;;;;5094574;28;20043;-67
2022/06/11 02:48:08;;;;;;;18.20;4.10;;;13.20;99.90;;;;;;5094636;28;20054;-65
2022/06/11 02:50:35;;;;;;;17.67;4.13;;;13.10;99.90;;;;;;5094097;28;20048;-65
2022/06/11 02:53:03;;;;;;;15.25;4.10;;;13.80;99.90;;;;;;5094252;28;20079;-66
2022/06/11 02:55:30;;;;;;;17.02;4.50;;;13.00;99.90;;;;;;5094066;28;20048;-65
2022/06/11 02:57:57;;;;;;;18.55;4.53;;;13.00;99.90;;;;;;5076189;28;20063;-65
2022/06/11 03:00:29;;;;;;;19.38;3.78;;;13.20;99.90;;;;;;5094008;28;20598;-65
2022/06/11 03:02:56;;;;;;;19.02;4.00;;;13.10;99.90;;;;;;5094259;28;20059;-65
2022/06/11 03:05:24;;;;;;;13.10;4.05;;;13.30;99.90;;;;;;5094199;28;20051;-65
2022/06/11 03:07:50;;;;;;;16.45;4.10;;;12.90;99.90;;;;;;5094161;28;20087;-65
2022/06/11 03:10:20;;;;;;;17.10;4.20;;;12.80;99.90;;;;;;5075983;28;20062;-65
2022/06/11 03:12:45;;;;;;;19.45;4.32;;;13.00;99.90;;;;;;5093988;28;20047;-65
2022/06/11 03:15:13;;;;;;;21.30;4.57;;;13.80;99.90;;;;;;5076155;28;20077;-67
2022/06/11 03:17:40;;;;;;;15.35;4.20;;;13.30;99.90;;;;;;5094004;28;20186;-65
2022/06/11 03:20:08;;;;;;;21.30;4.45;;;13.20;99.90;;;;;;5093969;28;20052;-65
2022/06/11 03:22:34;;;;;;;19.23;4.35;;;12.90;99.90;;;;;;5093776;28;20071;-65
2022/06/11 03:25:00;;;;;;;;;;;13.10;99.90;;;;;;5094304;28;20055;-66
2022/06/11 03:27:26;;;;;;;16.23;4.75;;;13.50;99.90;;;;;;5093851;28;20280;-65
2022/06/11 03:29:51;;;;;;;21.42;5.63;;;12.90;99.90;;;;;;5093731;28;20051;-66
2022/06/11 03:32:18;;;;;;;27.83;4.95;;;12.90;99.90;;;;;;5075210;28;20048;-65
2022/06/11 03:34:45;;;;;;;19.35;4.00;;;14.40;99.90;;;;;;5093560;28;20051;-65
2022/06/11 03:37:12;;;;;;;16.17;4.22;;;13.50;99.90;;;;;;5093552;28;20522;-66
2022/06/11 03:39:38;;;;;;;22.30;5.80;;;13.50;99.90;;;;;;5093231;28;20052;-64
2022/06/11 03:42:05;;;;;;;19.65;4.50;;;13.40;99.90;;;;;;5093548;28;20143;-65
2022/06/11 03:44:31;;;;;;;15.05;4.88;;;13.30;99.90;;;;;;5093419;28;20510;-66
2022/06/11 03:46:56;;;;;;;19.60;5.50;;;13.60;99.90;;;;;;5093532;28;20048;-67
2022/06/11 03:49:22;;;;;;;21.30;4.88;;;13.40;99.90;;;;;;5093307;28;20475;-65
2022/06/11 03:51:48;;;;;;;19.80;5.38;;;13.60;99.90;;;;;;5092697;28;20051;-65
2022/06/11 03:54:15;;;;;;;19.48;5.50;;;13.60;99.90;;;;;;5093238;28;20380;-65
2022/06/11 03:56:42;;;;;;;16.40;4.60;;;14.90;99.90;;;;;;5093218;28;20055;-65
2022/06/11 03:59:08;;;;;;;21.23;5.47;;;13.30;99.90;;;;;;5093234;28;20419;-65
2022/06/11 04:01:34;;;;;;;20.73;5.68;;;13.40;99.90;;;;;;5093284;28;20131;-65
2022/06/11 04:04:04;;;;;;;20.40;4.40;;;13.90;99.90;;;;;;5093371;28;20123;-65
2022/06/11 04:06:30;;;;;;;24.95;6.57;;;13.80;99.90;;;;;;5093029;28;20051;-65
2022/06/11 04:08:57;;;;;;;22.30;6.13;;;13.60;99.90;;;;;;5093013;28;20048;-65
2022/06/11 04:11:23;;;;;;;21.13;5.13;;;13.60;99.90;;;;;;5093038;28;20051;-66
2022/06/11 04:13:51;;;;;;;21.83;4.95;;;13.80;99.90;;;;;;5074446;28;20492;-65
2022/06/11 04:16:33;;;;;;;18.00;4.97;;;13.70;99.90;;;;;;5092661;28;20545;-65
2022/06/11 04:19:02;;;;;;;21.42;4.95;;;13.80;99.90;;;;;;5092674;28;20128;-66
2022/06/11 04:21:30;;;;;;;21.55;4.95;;;13.70;99.90;;;;;;5092583;28;20051;-65
2022/06/11 04:23:59;;;;;;;29.30;5.75;;;14.90;99.90;;;;;;5074513;28;20075;-65
2022/06/11 04:26:29;;;;;;;26.17;5.57;;;13.90;99.90;;;;;;5092598;28;20502;-65
2022/06/11 04:28:56;;;;;;;21.30;4.75;;;14.20;99.90;;;;;;5092463;28;20043;-66
2022/06/11 04:31:22;;;;;;;;;;;14.00;99.90;;;;;;5092425;28;20068;-65
2022/06/11 04:33:49;;;;;;;22.50;5.23;;;14.20;99.90;;;;;;5092580;28;20271;-65
2022/06/11 04:36:18;;;;;;;26.08;5.30;;;14.10;99.90;;;;;;5092530;28;20036;-66
2022/06/11 04:38:44;;;;;;;21.40;4.90;;;14.40;99.90;;;;;;5092230;28;20204;-66
2022/06/11 04:41:11;;;;;;;18.00;4.70;;;14.60;99.90;;;;;;5092362;28;20484;-67
2022/06/11 04:43:37;;;;;;;18.15;4.82;;;14.10;99.90;;;;;;5091799;28;20048;-67
2022/06/11 04:46:03;;;;;;;;;;;13.90;99.90;;;;;;5074492;28;20063;-65
2022/06/11 04:48:29;;;;;;;18.88;4.82;;;14.30;99.90;;;;;;5091882;28;19923;-65
2022/06/11 04:50:55;;;;;;;23.38;5.15;;;14.20;99.90;;;;;;5092252;28;20048;-65
2022/06/11 04:53:21;;;;;;;;;;;14.20;99.90;;;;;;5092627;28;20051;-65
2022/06/11 04:55:47;;;;;;;24.23;5.28;;;14.10;99.90;;;;;;5074115;28;19920;-65
2022/06/11 04:58:12;;;;;;;34.13;7.50;;;14.30;99.90;;;;;;5091728;28;20058;-67
2022/06/11 05:00:38;;;;;;;20.02;5.18;;;14.60;99.90;;;;;;5091584;28;20129;-65
2022/06/11 05:03:04;;;;;;;;;;;14.60;99.90;;;;;;5090979;28;20044;-65
2022/06/11 05:05:30;;;;;;;21.42;6.00;;;14.60;99.90;;;;;;5091853;28;20667;-64
2022/06/11 05:07:56;;;;;;;28.05;5.25;;;15.30;99.90;;;;;;5091871;28;20480;-65
2022/06/11 05:10:27;;;;;;;29.02;6.18;;;14.70;99.90;;;;;;5091408;28;20052;-65
2022/06/11 05:12:53;;;;;;;33.10;6.15;;;14.50;99.90;;;;;;5074180;28;20048;-65
2022/06/11 05:15:19;;;;;;;24.90;5.90;;;14.70;99.90;;;;;;5091624;28;20071;-66
2022/06/11 05:17:44;;;;;;;;;;;15.20;99.90;;;;;;5074001;28;20048;-65
2022/06/11 05:20:11;;;;;;;25.65;5.78;;;15.10;99.90;;;;;;5092003;28;19927;-65
2022/06/11 05:22:38;;;;;;;26.33;5.75;;;15.00;99.90;;;;;;5091970;28;20044;-65
2022/06/11 05:25:05;;;;;;;28.05;6.55;;;15.10;99.90;;;;;;5091836;28;20058;-65
2022/06/11 05:27:31;;;;;;;26.08;5.68;;;15.50;99.90;;;;;;5091521;28;20131;-66
2022/06/11 05:30:03;;;;;;;24.88;5.65;;;15.40;99.90;;;;;;5091734;28;20126;-65
2022/06/11 05:32:32;;;;;;;26.60;5.97;;;15.30;99.90;;;;;;5091749;28;20060;-66
2022/06/11 05:35:00;;;;;;;33.90;6.88;;;15.50;99.90;;;;;;5091816;28;20538;-66
2022/06/11 05:37:27;;;;;;;28.95;6.20;;;15.80;99.90;;;;;;5091643;28;20059;-66
2022/06/11 05:39:53;;;;;;;24.08;5.35;;;15.60;99.90;;;;;;5091784;28;20048;-66
2022/06/11 05:42:21;;;;;;;27.52;5.85;;;15.40;99.90;;;;;;5091714;28;20145;-66
2022/06/11 05:44:47;;;;;;;24.67;6.90;;;15.20;99.90;;;;;;5091045;28;20044;-66
2022/06/11 05:47:16;;;;;;;;;;;15.50;99.90;;;;;;5091973;28;20048;-67
2022/06/11 05:49:46;;;;;;;28.13;6.68;;;15.50;99.90;;;;;;5091469;28;19920;-65
2022/06/11 05:52:20;;;;;;;28.20;6.05;;;15.80;99.90;;;;;;5071255;28;20049;-65
2022/06/11 05:54:48;;;;;;;28.08;6.65;;;15.70;99.90;;;;;;5070442;28;20044;-65
2022/06/11 05:57:17;;;;;;;33.72;7.50;;;15.90;99.90;;;;;;5071466;28;20139;-66
2022/06/11 05:59:47;;;;;;;33.45;7.00;;;16.20;99.90;;;;;;5071542;28;20078;-69
2022/06/11 06:02:16;;;;;;;30.80;6.97;;;16.10;99.90;;;;;;5071714;28;20044;-65
2022/06/11 06:04:42;;;;;;;34.50;7.30;;;16.20;99.90;;;;;;5071079;28;20345;-65
2022/06/11 06:07:08;;;;;;;;;;;16.40;99.90;;;;;;5071759;28;20135;-66
2022/06/11 06:09:35;;;;;;;27.95;6.65;;;16.10;99.90;;;;;;5071269;28;19930;-65
2022/06/11 06:12:01;;;;;;;35.17;7.13;;;16.30;99.90;;;;;;5071231;28;20052;-65
2022/06/11 06:14:26;;;;;;;28.85;6.80;;;16.40;99.90;;;;;;5071945;28;20083;-65
2022/06/11 06:16:52;;;;;;;;;;;16.20;99.90;;;;;;5075282;28;20080;-66
2022/06/11 06:19:18;;;;;;;29.85;7.05;;;16.30;99.90;;;;;;5074896;28;20461;-65
2022/06/11 06:21:44;;;;;;;;;;;16.80;99.90;;;;;;5075264;28;20126;-67
2022/06/11 06:24:10;;;;;;;30.63;6.28;;;16.50;99.90;;;;;;5074795;28;19921;-66
2022/06/11 06:26:36;;;;;;;;;;;16.80;99.90;;;;;;5073901;28;20488;-66
2022/06/11 06:29:02;;;;;;;27.77;6.43;;;16.90;99.90;;;;;;5089526;28;20011;-66
2022/06/11 06:31:29;;;;;;;33.72;6.82;;;16.70;99.90;;;;;;5091988;28;20056;-66
2022/06/11 06:33:58;;;;;;;;;;;16.80;99.90;;;;;;5090985;28;20176;-66
2022/06/11 06:36:25;;;;;;;34.38;6.25;;;16.60;99.90;;;;;;5085028;28;19957;-67
2022/06/11 06:38:51;;;;;;;32.58;6.95;;;16.90;99.90;;;;;;5094197;28;20119;-67
2022/06/11 06:41:17;;;;;;;;;;;16.90;99.90;;;;;;5092291;28;20116;-66
2022/06/11 06:43:43;;;;;;;33.80;5.93;;;17.00;99.90;;;;;;5091544;28;19924;-67
2022/06/11 06:46:08;;;;;;;;;;;17.30;99.90;;;;;;5092651;28;20128;-67
2022/06/11 06:48:34;;;;;;;38.55;6.53;;;17.00;99.90;;;;;;5090809;28;20356;-67
2022/06/11 06:51:00;;;;;;;;;;;17.20;99.90;;;;;;5073062;28;20040;-65
2022/06/11 06:53:27;;;;;;;39.63;6.93;;;17.30;99.90;;;;;;5093535;28;19928;-69
2022/06/11 06:55:53;;;;;;;29.45;6.32;;;17.50;99.90;;;;;;5090774;28;20074;-69
2022/06/11 06:58:19;;;;;;;31.65;5.93;;;17.40;99.90;;;;;;5093303;28;20044;-65
2022/06/11 07:00:46;;;;;;;34.25;6.22;;;17.80;99.90;;;;;;5092894;28;20052;-67
2022/06/11 07:03:12;;;;;;;30.77;6.93;;;17.30;99.90;;;;;;5093272;28;20047;-68
2022/06/11 07:05:39;;;;;;;33.95;5.90;;;17.60;99.90;;;;;;5092696;28;20496;-67
2022/06/11 07:08:06;;;;;;;27.15;6.03;;;17.70;99.90;;;;;;5092947;28;20408;-70
2022/06/11 07:10:33;;;;;;;28.33;5.65;;;17.70;99.90;;;;;;5092296;28;20129;-70
2022/06/11 07:12:59;;;;;;;45.83;5.80;;;17.50;99.90;;;;;;5092489;28;20040;-65
2022/06/11 07:15:26;;;;;;;32.53;5.88;;;17.70;99.90;;;;;;5092981;28;20052;-65
2022/06/11 07:18:07;;;;;;;37.35;6.18;;;18.10;99.90;;;;;;5074723;28;20128;-66
2022/06/11 07:20:35;;;;;;;34.05;5.75;;;17.70;99.90;;;;;;5092193;28;20105;-68
2022/06/11 07:23:16;;;;;;;24.45;5.03;;;17.90;99.90;;;;;;5092086;28;20192;-67
2022/06/11 07:25:46;;;;;;;29.83;5.05;;;18.00;99.90;;;;;;5071655;28;20040;-67
2022/06/11 07:28:19;;;;;;;25.08;4.82;;;18.00;99.90;;;;;;5091964;28;20110;-67
2022/06/11 07:30:45;;;;;;;24.90;5.10;;;17.70;99.90;;;;;;5091870;28;20102;-67
2022/06/11 07:33:16;;;;;;;30.88;5.20;;;17.80;99.90;;;;;;5073355;28;20032;-67
2022/06/11 07:35:42;;;;;;;32.88;5.45;;;18.00;99.90;;;;;;5092102;28;20438;-68
2022/06/11 07:38:12;;;;;;;;;;;18.20;99.90;;;;;;5074296;28;20116;-72
2022/06/11 07:40:38;;;;;;;23.80;5.05;;;17.90;99.90;;;;;;5091462;28;20309;-68
2022/06/11 07:43:06;;;;;;;40.95;5.68;;;18.20;99.90;;;;;;5091997;28;20114;-67
2022/06/11 07:45:33;;;;;;;28.00;4.95;;;18.20;99.90;;;;;;5091627;28;20534;-66
2022/06/11 07:48:00;;;;;;;22.83;4.40;;;18.30;99.90;;;;;;5092224;28;20127;-69
2022/06/11 07:50:30;;;;;;;19.92;4.93;;;18.50;99.90;;;;;;5092010;28;20044;-66
2022/06/11 07:52:56;;;;;;;22.15;4.63;;;18.30;99.90;;;;;;5089645;28;20078;-67
2022/06/11 07:55:23;;;;;;;20.17;3.92;;;18.40;99.90;;;;;;5071711;28;20051;-66
2022/06/11 07:57:49;;;;;;;24.77;4.68;;;18.20;99.90;;;;;;5090364;28;20047;-67
2022/06/11 08:00:21;;;;;;;21.55;4.00;;;18.40;99.90;;;;;;5090134;28;20546;-70
2022/06/11 08:02:47;;;;;;;22.05;4.85;;;18.30;99.90;;;;;;5090436;28;20127;-69
2022/06/11 08:05:14;;;;;;;23.35;5.72;;;18.20;99.90;;;;;;5090556;28;20124;-67
2022/06/11 08:07:40;;;;;;;13.93;4.25;;;18.40;99.90;;;;;;5088864;28;20040;-67
2022/06/11 08:10:06;;;;;;;19.08;5.00;;;18.50;99.90;;;;;;5090422;28;20131;-70
2022/06/11 08:12:32;;;;;;;20.17;5.13;;;18.50;99.90;;;;;;5089838;28;20036;-67
2022/06/11 08:14:58;;;;;;;23.48;4.60;;;18.70;99.90;;;;;;5089439;28;20510;-67
2022/06/11 08:17:25;;;;;;;24.25;5.35;;;18.80;99.90;;;;;;5089306;28;20044;-68
2022/06/11 08:19:51;;;;;;;20.90;4.20;;;18.80;99.90;;;;;;5090350;28;20086;-69
2022/06/11 08:22:17;;;;;;;20.08;3.80;;;18.70;99.90;;;;;;5071366;28;20091;-67
2022/06/11 08:24:42;;;;;;;18.17;3.97;;;18.70;99.90;;;;;;5090008;28;20044;-74
2022/06/11 08:27:08;;;;;;;25.23;4.25;;;18.90;99.90;;;;;;5089186;28;20043;-67
2022/06/11 08:29:34;;;;;;;23.10;3.95;;;18.90;99.90;;;;;;5089482;28;20047;-67
2022/06/11 08:31:59;;;;;;;21.33;3.95;;;18.60;99.90;;;;;;5089678;28;20067;-67
2022/06/11 08:34:25;;;;;;;18.38;4.72;;;19.00;99.90;;;;;;5089901;28;20048;-68
2022/06/11 08:36:51;;;;;;;22.67;4.03;;;19.10;99.90;;;;;;5087914;28;20058;-67
2022/06/11 08:39:16;;;;;;;20.63;4.80;;;19.30;99.90;;;;;;5089732;28;20056;-66
2022/06/11 08:41:42;;;;;;;13.55;3.63;;;19.10;99.90;;;;;;5089914;28;20097;-68
2022/06/11 08:44:15;;;;;;;20.27;4.30;;;19.10;99.90;;;;;;5089207;28;20439;-67
2022/06/11 08:46:43;;;;;;;18.02;4.85;;;19.30;99.90;;;;;;5088555;28;20519;-67
2022/06/11 08:49:12;;;;;;;19.38;3.63;;;18.70;99.90;;;;;;5089713;28;20048;-69
2022/06/11 08:51:50;;;;;;;21.95;4.45;;;19.30;99.90;;;;;;5087150;28;20059;-67
2022/06/11 08:54:39;;;;;;;20.15;3.22;;;18.70;99.90;;;;;;5089595;28;20048;-66
2022/06/11 08:57:26;;;;;;;18.42;4.57;;;19.00;99.90;;;;;;5087723;28;20048;-67
2022/06/11 09:00:04;;;;;;;20.48;3.47;;;19.30;99.90;;;;;;5088962;28;20050;-66
2022/06/11 09:02:45;;;;;;;15.75;3.35;;;19.10;99.90;;;;;;5089637;28;20126;-71
2022/06/11 09:05:29;;;;;;;20.33;4.85;;;19.20;99.90;;;;;;5088336;28;20659;-70
2022/06/11 09:08:00;;;;;;;16.17;3.95;;;19.30;99.90;;;;;;5070380;28;20083;-67
2022/06/11 09:10:41;;;;;;;19.08;4.40;;;19.50;99.90;;;;;;5070683;28;20215;-69
2022/06/11 09:13:20;;;;;;;16.63;3.15;;;19.40;99.90;;;;;;5071105;28;20044;-67
2022/06/11 09:16:07;;;;;;;18.90;3.38;;;19.30;99.90;;;;;;5071904;28;20064;-67
2022/06/11 09:18:44;;;;;;;20.33;3.80;;;19.40;99.90;;;;;;5071851;28;20048;-67
2022/06/11 09:21:21;;;;;;;17.30;3.33;;;19.40;99.90;;;;;;5071476;28;20554;-66
2022/06/11 09:24:03;;;;;;;17.35;3.47;;;19.40;99.90;;;;;;5071722;28;20041;-67
2022/06/11 09:27:09;;;;;;;16.83;3.35;;;19.60;99.90;;;;;;5071784;28;20058;-67
2022/06/11 09:29:44;;;;;;;19.45;4.40;;;19.20;99.90;;;;;;4989419;28;20129;-68
2022/06/11 09:32:19;;;;;;;17.25;3.40;;;19.40;99.90;;;;;;5074135;28;20044;-67
2022/06/11 09:35:13;;;;;;;14.20;3.88;;;19.90;99.90;;;;;;5091347;28;20046;-67
2022/06/11 09:38:07;;;;;;;18.13;3.28;;;19.80;99.90;;;;;;5090101;28;20040;-66
2022/06/11 09:40:49;;;;;;;15.65;3.20;;;20.20;99.90;;;;;;5085968;28;20052;-68
2022/06/11 09:43:36;;;;;;;13.07;3.28;;;20.20;99.90;;;;;;5071724;28;20045;-66
2022/06/11 09:46:17;;;;;;;22.13;3.83;;;19.90;99.90;;;;;;5071340;28;20087;-67
2022/06/11 09:49:01;;;;;;;17.27;3.10;;;19.60;99.90;;;;;;5076437;28;20066;-67
2022/06/11 09:51:51;;;;;;;10.57;2.72;;;19.70;99.90;;;;;;5113462;28;20055;-67
2022/06/11 09:54:29;;;;;;;18.08;3.90;;;19.80;99.90;;;;;;5075549;28;20084;-66
2022/06/11 09:57:17;;;;;;;19.02;4.15;;;20.30;99.90;;;;;;5075414;28;20045;-66
2022/06/11 10:00:13;;;;;;;15.07;3.13;;;20.40;99.90;;;;;;5080567;28;20044;-67
2022/06/11 10:06:19;;;;;;;18.55;3.35;;;20.40;99.90;;;;;;5091881;28;20131;-66
2022/06/11 10:08:57;;;;;;;15.40;2.85;;;20.50;99.90;;;;;;5115837;28;20078;-67
2022/06/11 10:11:44;;;;;;;18.20;3.83;;;20.30;99.90;;;;;;5097470;28;20108;-68
2022/06/11 10:14:31;;;;;;;13.07;2.80;;;20.40;99.90;;;;;;5115570;28;20479;-66
2022/06/11 10:17:12;;;;;;;14.55;2.80;;;20.40;99.90;;;;;;5115580;28;20547;-67
2022/06/11 10:19:51;;;;;;;14.68;3.63;;;20.70;99.90;;;;;;5115542;28;20047;-69
2022/06/11 10:22:38;;;;;;;13.75;3.03;;;20.50;99.90;;;;;;5103618;28;20067;-68
2022/06/11 10:25:18;;;;;;;15.73;3.00;;;20.30;99.90;;;;;;5076306;28;20116;-67
2022/06/11 10:28:10;;;;;;;14.10;3.70;;;20.70;99.90;;;;;;5075804;28;20052;-67
2022/06/11 10:30:38;;;;;;;18.05;3.15;;;20.50;99.90;;;;;;5074097;28;20071;-66
2022/06/11 10:33:11;;;;;;;13.88;2.92;;;20.50;99.90;;;;;;5094109;28;20047;-67
2022/06/11 10:36:03;;;;;;;15.48;3.50;;;20.70;99.90;;;;;;5094282;28;20048;-68
2022/06/11 10:38:45;;;;;;;20.52;2.92;;;20.70;99.90;;;;;;5074345;28;20091;-67
2022/06/11 10:41:42;;;;;;;16.88;2.80;;;21.10;99.90;;;;;;5074574;28;20083;-66
2022/06/11 10:44:23;;;;;;;;;;;21.00;99.90;;;;;;5032823;28;20497;-67
2022/06/11 10:46:49;;;;;;;11.00;2.17;;;21.20;99.90;;;;;;5074267;28;19920;-66
2022/06/11 10:49:19;;;;;;;16.30;2.83;;;20.90;99.90;;;;;;5074437;28;20444;-68
2022/06/11 10:51:55;;;;;;;12.20;2.67;;;20.70;99.90;;;;;;5074188;28;20464;-67
2022/06/11 10:54:22;;;;;;;;;;;20.30;99.90;;;;;;5074540;28;20084;-68
2022/06/11 10:56:51;;;;;;;19.67;3.67;;;21.10;99.90;;;;;;5074179;28;19934;-67
2022/06/11 10:59:29;;;;;;;14.93;2.70;;;22.80;99.90;;;;;;5074005;28;20098;-69
2022/06/11 11:02:09;;;;;;;12.40;2.30;;;21.20;99.90;;;;;;5073944;28;20048;-67
2022/06/11 11:04:40;;;;;;;15.18;4.03;;;20.80;99.90;;;;;;5074219;28;20083;-66
2022/06/11 11:07:19;;;;;;;10.30;2.78;;;20.70;99.90;;;;;;5073939;28;20044;-66
2022/06/11 11:09:46;;;;;;;15.88;2.58;;;21.50;99.90;;;;;;5073909;28;20127;-66
2022/06/11 11:12:25;;;;;;;14.30;2.72;;;21.40;99.90;;;;;;5073920;28;20094;-69
2022/06/11 11:15:11;;;;;;;12.90;2.70;;;21.10;99.90;;;;;;5073924;28;20127;-68
2022/06/11 11:17:45;;;;;;;12.55;2.45;;;21.00;99.90;;;;;;5073749;28;20131;-70
2022/06/11 11:20:35;;;;;;;17.58;3.03;;;20.50;99.90;;;;;;5073911;28;20071;-69
2022/06/11 11:23:10;;;;;;;12.15;2.45;;;20.80;99.90;;;;;;5073589;28;20076;-67
2022/06/11 11:25:49;;;;;;;12.07;2.38;;;20.70;99.90;;;;;;5073222;28;20078;-68
2022/06/11 11:28:30;;;;;;;12.93;2.90;;;20.80;99.90;;;;;;5073526;28;20059;-66
2022/06/11 11:31:18;;;;;;;12.00;2.95;;;20.80;99.90;;;;;;5073224;28;20045;-67
2022/06/11 11:34:01;;;;;;;11.68;2.45;;;20.20;99.90;;;;;;5073020;28;20373;-66
2022/06/11 11:36:29;;;;;;;16.50;2.88;;;20.50;99.90;;;;;;5072407;28;20045;-66
2022/06/11 11:39:11;;;;;;;12.57;2.47;;;20.50;99.90;;;;;;5073178;28;20040;-67
2022/06/11 11:41:38;;;;;;;12.18;2.53;;;20.70;99.90;;;;;;5073432;28;20060;-69
2022/06/11 11:44:04;;;;;;;15.40;2.60;;;21.00;99.90;;;;;;5073224;28;20097;-68
2022/06/11 11:46:35;;;;;;;11.90;2.83;;;20.80;99.90;;;;;;5073247;28;20040;-67
2022/06/11 11:49:04;;;;;;;14.35;3.38;;;20.70;99.90;;;;;;5083768;28;20071;-67
2022/06/11 11:51:39;;;;;;;15.32;2.78;;;20.70;99.90;;;;;;5093277;28;20083;-68
2022/06/11 11:54:17;;;;;;;11.77;2.33;;;20.50;99.90;;;;;;5093435;28;20128;-67
2022/06/11 11:56:42;;;;;;;14.00;2.85;;;21.30;99.90;;;;;;5093129;28;20048;-68
2022/06/11 11:59:32;;;;;;;9.70;3.13;;;21.10;99.90;;;;;;5093099;28;20506;-69
2022/06/11 12:02:19;;;;;;;11.43;2.40;;;21.10;99.90;;;;;;5092794;28;20040;-67
2022/06/11 12:04:57;;;;;;;12.35;2.25;;;21.30;99.90;;;;;;5092800;28;20036;-67
2022/06/11 12:07:40;;;;;;;11.75;2.30;;;21.40;99.90;;;;;;5105937;28;20115;-70
2022/06/11 12:10:46;;;;;;;11.45;2.55;;;21.20;99.90;;;;;;5112716;28;20051;-67
2022/06/11 12:13:27;;;;;;;9.45;1.90;;;21.10;99.90;;;;;;5028978;28;20454;-67
2022/06/11 12:16:01;;;;;;;16.65;2.38;;;21.40;99.90;;;;;;5029458;28;20049;-68
2022/06/11 12:18:33;;;;;;;12.48;2.25;;;23.90;99.90;;;;;;5082515;28;20064;-67
2022/06/11 12:21:04;;;;;;;10.50;2.22;;;21.20;99.90;;;;;;5112906;28;20047;-67
2022/06/11 12:23:42;;;;;;;8.65;2.10;;;21.80;99.90;;;;;;5112951;28;20039;-68
2022/06/11 12:26:27;;;;;;;11.23;2.50;;;21.60;99.90;;;;;;5113180;28;20055;-68
2022/06/11 12:29:00;;;;;;;13.10;2.83;;;21.80;99.90;;;;;;5112720;28;20120;-68
2022/06/11 12:31:28;;;;;;;12.23;2.75;;;22.10;99.90;;;;;;5112724;28;20056;-67
2022/06/11 12:33:55;;;;;;;11.73;2.75;;;21.90;99.90;;;;;;5112732;28;20084;-68
2022/06/11 12:36:30;;;;;;;12.20;2.72;;;22.30;99.90;;;;;;5112374;28;20477;-68
2022/06/11 12:39:10;;;;;;;10.77;2.60;;;22.10;99.90;;;;;;5112578;28;20066;-70
2022/06/11 12:42:00;;;;;;;11.45;2.60;;;22.30;99.90;;;;;;5094691;28;20098;-69
2022/06/11 12:44:36;;;;;;;13.68;2.80;;;22.20;99.90;;;;;;5112327;28;20117;-69
2022/06/11 12:47:14;;;;;;;10.75;2.75;;;21.70;99.90;;;;;;5112785;28;20150;-68
2022/06/11 12:49:55;;;;;;;13.90;2.88;;;21.10;99.90;;;;;;5112563;28;20047;-72
2022/06/11 12:52:29;;;;;;;10.77;2.40;;;21.70;99.90;;;;;;5112648;28;20051;-68
2022/06/11 12:55:06;;;;;;;11.68;3.17;;;21.60;99.90;;;;;;5112192;28;20494;-70
2022/06/11 12:58:09;;;;;;;13.68;3.08;;;21.70;99.90;;;;;;5112061;28;20733;-69
2022/06/11 13:00:57;;;;;;;18.75;3.53;;;22.00;99.90;;;;;;5112068;28;20506;-67
2022/06/11 13:03:45;;;;;;;9.40;2.45;;;22.10;99.90;;;;;;5094166;28;20039;-68
2022/06/11 13:06:29;;;;;;;15.68;3.53;;;22.20;99.90;;;;;;5094120;28;20054;-69
2022/06/11 13:09:15;;;;;;;15.35;3.65;;;22.40;99.90;;;;;;5112454;28;20048;-68
2022/06/11 13:12:09;;;;;;;16.02;3.38;;;22.20;99.90;;;;;;5111953;28;20092;-69
2022/06/11 13:14:47;;;;;;;11.40;3.25;;;22.40;99.90;;;;;;5082142;28;20050;-70
2022/06/11 13:17:25;;;;;;;16.98;3.17;;;22.50;99.90;;;;;;5112292;28;20091;-69